Time;durP1;ratioP1;P1;durP2;ratioP2;P2;SDS_P1;SDS_P2;PMS_P1;PMS_P2;Temp;Humidity;BMP_temperature;BMP_pressure;BME280_temperature;BME280_humidity;BME280_pressure;Samples;Min_cycle;Max_cycle;Signal;HPM_P1;HPM_P2
2022/05/26 00:01:04;;;;;;;8.98;2.00;;;11.90;99.90;;;;;;4999989;28;20038;-57
2022/05/26 00:03:35;;;;;;;6.85;1.20;;;11.90;99.90;;;;;;5001996;28;20062;-57
2022/05/26 00:06:01;;;;;;;8.70;1.30;;;12.00;99.90;;;;;;5002664;28;20032;-56
2022/05/26 00:08:28;;;;;;;10.52;2.67;;;12.00;99.90;;;;;;5009922;28;20025;-57
2022/05/26 00:10:55;;;;;;;8.90;1.45;;;11.90;99.90;;;;;;5002914;28;20121;-55
2022/05/26 00:13:20;;;;;;;9.82;1.77;;;11.80;99.90;;;;;;4999156;28;20054;-56
2022/05/26 00:15:46;;;;;;;8.95;2.20;;;11.90;99.90;;;;;;5004858;28;20061;-56
2022/05/26 00:18:12;;;;;;;9.93;1.67;;;11.90;99.90;;;;;;5010218;28;20029;-56
2022/05/26 00:20:37;;;;;;;11.82;1.48;;;11.90;99.90;;;;;;4999026;28;20034;-58
2022/05/26 00:23:03;;;;;;;10.88;1.70;;;11.90;99.90;;;;;;5000329;28;20039;-56
2022/05/26 00:25:29;;;;;;;9.10;1.33;;;11.90;99.90;;;;;;5004992;28;20033;-54
2022/05/26 00:27:55;;;;;;;13.30;2.08;;;12.10;99.90;;;;;;4991825;28;20026;-57
2022/05/26 00:30:21;;;;;;;12.45;1.75;;;12.10;99.90;;;;;;5008683;28;20516;-56
2022/05/26 00:32:47;;;;;;;10.77;1.50;;;12.10;99.90;;;;;;4998395;28;20054;-58
2022/05/26 00:35:15;;;;;;;3.92;1.10;;;12.10;99.90;;;;;;5006384;28;20076;-56
2022/05/26 00:37:41;;;;;;;11.13;1.88;;;12.10;99.90;;;;;;4997011;28;20034;-56
2022/05/26 00:40:08;;;;;;;7.25;1.60;;;12.10;99.90;;;;;;4997282;28;20169;-56
2022/05/26 00:42:34;;;;;;;7.72;1.70;;;12.10;99.90;;;;;;5004629;28;20037;-57
2022/05/26 00:44:59;;;;;;;7.82;1.88;;;12.00;99.90;;;;;;5009174;28;20034;-57
2022/05/26 00:47:30;;;;;;;11.70;2.35;;;12.00;99.90;;;;;;5006778;28;20026;-56
2022/05/26 00:50:05;;;;;;;5.95;1.55;;;11.80;99.90;;;;;;4999095;28;20046;-57
2022/05/26 00:52:33;;;;;;;12.07;1.88;;;11.80;99.90;;;;;;5012505;28;20026;-56
2022/05/26 00:55:04;;;;;;;5.30;1.15;;;11.90;99.90;;;;;;5001427;28;20034;-57
2022/05/26 00:57:41;;;;;;;10.50;2.22;;;11.90;99.90;;;;;;5003381;28;20084;-57
2022/05/26 01:00:20;;;;;;;7.50;1.27;;;11.80;99.90;;;;;;5011954;28;20032;-56
2022/05/26 01:03:04;;;;;;;10.18;1.20;;;11.70;99.90;;;;;;5012092;28;20172;-56
2022/05/26 01:05:46;;;;;;;7.03;1.95;;;11.60;99.90;;;;;;5008583;28;20025;-57
2022/05/26 01:08:24;;;;;;;5.90;1.75;;;11.50;99.90;;;;;;4999061;28;20045;-56
2022/05/26 01:10:50;;;;;;;8.77;1.52;;;11.40;99.90;;;;;;5008309;28;20041;-56
2022/05/26 01:13:17;;;;;;;6.13;1.80;;;11.40;99.90;;;;;;5002558;28;20030;-57
2022/05/26 01:15:51;;;;;;;9.05;1.50;;;11.40;99.90;;;;;;5001276;28;20105;-56
2022/05/26 01:18:23;;;;;;;7.65;1.48;;;11.40;99.90;;;;;;5012348;28;20022;-55
2022/05/26 01:21:25;;;;;;;11.45;2.42;;;11.40;99.90;;;;;;5002404;28;20121;-57
2022/05/26 01:24:24;;;;;;;7.80;1.35;;;11.40;99.90;;;;;;4999243;28;20038;-54
2022/05/26 01:27:17;;;;;;;6.85;1.88;;;11.50;99.90;;;;;;5011009;28;20034;-57
2022/05/26 01:30:01;;;;;;;;;;;11.50;99.90;;;;;;5000961;28;20460;-57
2022/05/26 01:32:38;;;;;;;6.35;1.95;;;11.50;99.90;;;;;;5006616;28;19917;-56
2022/05/26 01:35:10;;;;;;;7.75;1.85;;;11.50;99.90;;;;;;4997560;28;20057;-57
2022/05/26 01:37:46;;;;;;;9.38;1.73;;;11.40;99.90;;;;;;5002076;28;20522;-57
2022/05/26 01:40:33;;;;;;;5.05;1.08;;;11.40;99.90;;;;;;4995234;28;20482;-57
2022/05/26 01:43:05;;;;;;;9.63;1.63;;;11.50;99.90;;;;;;5003493;28;20398;-56
2022/05/26 01:45:48;;;;;;;5.95;1.30;;;11.50;99.90;;;;;;5010525;28;20032;-57
2022/05/26 01:48:17;;;;;;;13.35;1.50;;;11.50;99.90;;;;;;5012336;28;20038;-56
2022/05/26 01:51:16;;;;;;;12.13;1.92;;;11.40;99.90;;;;;;5002271;28;20555;-56
2022/05/26 01:53:57;;;;;;;5.28;1.02;;;11.40;99.90;;;;;;4999809;28;20073;-57
2022/05/26 01:56:43;;;;;;;8.77;1.40;;;11.40;99.90;;;;;;5011126;28;20528;-57
2022/05/26 01:59:24;;;;;;;8.88;2.00;;;11.50;99.90;;;;;;5004491;28;20038;-56
2022/05/26 02:01:56;;;;;;;4.95;1.13;;;11.50;99.90;;;;;;4998666;28;20026;-56
2022/05/26 02:04:34;;;;;;;9.30;1.45;;;11.50;99.90;;;;;;5003392;28;20034;-56
2022/05/26 02:07:09;;;;;;;10.95;1.63;;;11.40;99.90;;;;;;5008793;28;20030;-56
2022/05/26 02:09:41;;;;;;;7.22;1.58;;;11.40;99.90;;;;;;5008688;28;20030;-57
2022/05/26 02:12:19;;;;;;;8.38;1.33;;;11.40;99.90;;;;;;4997950;28;20050;-58
2022/05/26 02:14:50;;;;;;;13.90;2.88;;;11.30;99.90;;;;;;5008251;28;20485;-56
2022/05/26 02:17:24;;;;;;;10.32;1.42;;;11.40;99.90;;;;;;4998601;28;20087;-57
2022/05/26 02:19:56;;;;;;;4.85;1.45;;;11.30;99.90;;;;;;5009143;28;20038;-57
2022/05/26 02:22:25;;;;;;;9.93;1.35;;;11.30;99.90;;;;;;5011953;28;20083;-56
2022/05/26 02:25:04;;;;;;;11.18;1.30;;;11.40;99.90;;;;;;4998937;28;20026;-56
2022/05/26 02:27:33;;;;;;;8.80;1.58;;;11.30;99.90;;;;;;5007869;28;20034;-58
2022/05/26 02:30:01;;;;;;;3.83;1.40;;;11.20;99.90;;;;;;4994188;28;20034;-55
2022/05/26 02:32:53;;;;;;;10.20;1.38;;;11.20;99.90;;;;;;5003915;28;20454;-57
2022/05/26 02:35:31;;;;;;;8.57;1.10;;;11.10;99.90;;;;;;5004655;28;20033;-57
2022/05/26 02:38:06;;;;;;;9.60;1.92;;;11.10;99.90;;;;;;4994038;28;20034;-56
2022/05/26 02:40:32;;;;;;;10.75;1.25;;;11.10;99.90;;;;;;5011246;28;20486;-57
2022/05/26 02:43:12;;;;;;;6.22;1.35;;;11.10;99.90;;;;;;4994225;28;20037;-56
2022/05/26 02:46:08;;;;;;;7.78;1.30;;;11.10;99.90;;;;;;4998571;28;20029;-56
2022/05/26 02:48:59;;;;;;;10.95;1.60;;;11.20;99.90;;;;;;5005907;28;20084;-55
2022/05/26 02:51:49;;;;;;;7.47;1.40;;;11.20;99.90;;;;;;5011412;28;20474;-56
2022/05/26 02:54:26;;;;;;;4.53;1.67;;;11.20;99.90;;;;;;5009911;28;20037;-56
2022/05/26 02:57:28;;;;;;;9.55;1.48;;;11.20;99.90;;;;;;5008530;28;20168;-57
2022/05/26 02:59:57;;;;;;;9.27;1.60;;;11.20;99.90;;;;;;5000641;28;20099;-56
2022/05/26 03:02:34;;;;;;;7.72;1.75;;;11.20;99.90;;;;;;4999134;28;20045;-56
2022/05/26 03:05:38;;;;;;;9.07;1.50;;;11.20;99.90;;;;;;4994261;28;20030;-56
2022/05/26 03:08:08;;;;;;;8.63;1.35;;;11.20;99.90;;;;;;4984507;28;20034;-54
2022/05/26 03:10:34;;;;;;;7.25;1.17;;;11.20;99.90;;;;;;5008556;28;20034;-56
2022/05/26 03:13:01;;;;;;;8.07;1.33;;;11.10;99.90;;;;;;5010569;28;20482;-55
2022/05/26 03:15:28;;;;;;;12.10;1.65;;;11.10;99.90;;;;;;5002907;28;20489;-57
2022/05/26 03:17:54;;;;;;;7.97;1.30;;;11.10;99.90;;;;;;4991533;28;20501;-56
2022/05/26 03:20:20;;;;;;;9.52;1.67;;;11.10;99.90;;;;;;5005845;28;20029;-58
2022/05/26 03:22:45;;;;;;;10.98;2.33;;;11.10;99.90;;;;;;5008564;28;20030;-56
2022/05/26 03:25:11;;;;;;;8.68;1.20;;;11.10;99.90;;;;;;5003598;28;20041;-55
2022/05/26 03:27:37;;;;;;;12.55;2.05;;;11.00;99.90;;;;;;5008474;28;20386;-54
2022/05/26 03:30:04;;;;;;;8.43;1.85;;;11.00;99.90;;;;;;5004677;28;20038;-56
2022/05/26 03:32:30;;;;;;;7.82;1.40;;;10.90;99.90;;;;;;5006954;28;20046;-56
2022/05/26 03:43:09;;;;;;;11.80;1.58;;;10.80;99.90;;;;;;5007818;28;20041;-56
2022/05/26 03:45:35;;;;;;;7.38;1.75;;;10.80;99.90;;;;;;5007824;28;20034;-54
2022/05/26 03:48:02;;;;;;;8.68;2.20;;;10.80;99.90;;;;;;5010441;28;20582;-55
2022/05/26 03:50:28;;;;;;;6.68;1.40;;;10.70;99.90;;;;;;5007827;28;20500;-55
2022/05/26 03:52:54;;;;;;;11.32;1.35;;;10.80;99.90;;;;;;5007601;28;20029;-56
2022/05/26 03:55:22;;;;;;;8.30;1.63;;;10.80;99.90;;;;;;5002928;28;20482;-55
2022/05/26 03:57:48;;;;;;;12.85;1.92;;;10.70;99.90;;;;;;5006618;28;20493;-55
2022/05/26 04:00:21;;;;;;;12.13;1.60;;;10.70;99.90;;;;;;5010246;28;20030;-56
2022/05/26 04:02:47;;;;;;;8.10;1.52;;;10.60;99.90;;;;;;5008642;28;20022;-56
2022/05/26 04:05:14;;;;;;;10.73;1.33;;;10.60;99.90;;;;;;5008663;28;20060;-55
2022/05/26 04:07:40;;;;;;;5.82;1.33;;;10.80;99.90;;;;;;5006578;28;20033;-55
2022/05/26 04:10:08;;;;;;;9.13;1.80;;;10.80;99.90;;;;;;5009869;28;20038;-56
2022/05/26 04:12:35;;;;;;;12.93;2.20;;;10.80;99.90;;;;;;5007549;28;20065;-54
2022/05/26 04:15:02;;;;;;;16.15;2.17;;;10.70;99.90;;;;;;5009319;28;20033;-55
2022/05/26 04:17:28;;;;;;;11.30;2.20;;;10.70;99.90;;;;;;5006500;28;20037;-55
2022/05/26 04:19:54;;;;;;;13.70;1.60;;;10.70;99.90;;;;;;5008041;28;20029;-55
2022/05/26 04:22:23;;;;;;;8.15;2.45;;;10.70;99.90;;;;;;5009709;28;20037;-56
2022/05/26 04:24:53;;;;;;;12.95;2.00;;;10.70;99.90;;;;;;5007986;28;20034;-54
2022/05/26 04:27:21;;;;;;;10.30;1.65;;;10.70;99.90;;;;;;5009299;28;20041;-56
2022/05/26 04:29:47;;;;;;;12.85;1.40;;;10.70;99.90;;;;;;5005832;28;20030;-55
2022/05/26 04:32:13;;;;;;;2.58;1.25;;;10.80;99.90;;;;;;5009446;28;20129;-55
2022/05/26 04:34:40;;;;;;;13.30;1.65;;;10.80;99.90;;;;;;5007698;28;20034;-55
2022/05/26 04:37:06;;;;;;;7.15;1.75;;;10.90;99.90;;;;;;5009584;28;20044;-54
2022/05/26 04:39:33;;;;;;;8.77;1.73;;;11.00;99.90;;;;;;5009143;28;20030;-56
2022/05/26 04:42:00;;;;;;;6.05;1.50;;;11.00;99.90;;;;;;5000142;28;20033;-55
2022/05/26 04:44:31;;;;;;;10.90;1.80;;;11.00;99.90;;;;;;5007196;28;20026;-56
2022/05/26 04:46:57;;;;;;;4.35;2.22;;;11.00;99.90;;;;;;5007625;28;20034;-55
2022/05/26 04:49:23;;;;;;;10.48;2.05;;;11.00;99.90;;;;;;5009517;28;20038;-55
2022/05/26 04:51:48;;;;;;;10.02;1.88;;;11.20;99.90;;;;;;5007646;28;20036;-55
2022/05/26 04:54:14;;;;;;;7.60;1.40;;;11.20;99.90;;;;;;5008707;28;20033;-56
2022/05/26 04:56:40;;;;;;;8.18;1.42;;;11.20;99.90;;;;;;5007250;28;20481;-56
2022/05/26 04:59:06;;;;;;;7.20;1.70;;;11.30;99.90;;;;;;5007475;28;20477;-56
2022/05/26 05:01:32;;;;;;;7.63;1.40;;;11.30;99.90;;;;;;5001293;28;20088;-57
2022/05/26 05:04:00;;;;;;;5.97;1.30;;;11.30;99.90;;;;;;5006150;28;20030;-56
2022/05/26 05:06:26;;;;;;;5.88;1.63;;;11.40;99.90;;;;;;5008898;28;20034;-56
2022/05/26 05:08:52;;;;;;;7.97;1.63;;;11.50;99.90;;;;;;5007304;28;20119;-54
2022/05/26 05:11:18;;;;;;;13.55;1.80;;;11.60;99.90;;;;;;5009424;28;20145;-55
2022/05/26 05:13:44;;;;;;;8.95;1.35;;;11.60;99.90;;;;;;5006474;28;20167;-54
2022/05/26 05:16:27;;;;;;;11.50;2.25;;;11.70;99.90;;;;;;5009542;28;20036;-55
2022/05/26 05:18:53;;;;;;;16.00;3.97;;;11.80;99.90;;;;;;5006479;28;20026;-57
2022/05/26 05:21:26;;;;;;;7.65;1.67;;;11.80;99.90;;;;;;5009619;28;20167;-56
2022/05/26 05:23:59;;;;;;;7.43;1.90;;;11.80;99.90;;;;;;4997356;28;20034;-53
2022/05/26 05:26:29;;;;;;;9.88;2.40;;;12.00;99.90;;;;;;5005586;28;20026;-54
2022/05/26 05:29:01;;;;;;;7.90;1.38;;;12.10;99.90;;;;;;5007461;28;20034;-52
2022/05/26 05:31:34;;;;;;;13.13;2.88;;;12.10;99.90;;;;;;4994518;28;20108;-57
2022/05/26 05:34:05;;;;;;;12.90;2.28;;;12.20;99.90;;;;;;4999275;28;20096;-57
2022/05/26 05:36:34;;;;;;;10.73;2.20;;;12.20;99.90;;;;;;5009289;28;20034;-56
2022/05/26 05:39:02;;;;;;;7.75;1.65;;;12.30;99.90;;;;;;5007979;28;20030;-55
2022/05/26 05:41:31;;;;;;;10.57;1.77;;;12.40;99.90;;;;;;5000423;28;20049;-57
2022/05/26 05:43:57;;;;;;;12.50;2.10;;;12.50;99.90;;;;;;5011067;28;20061;-56
2022/05/26 05:46:23;;;;;;;6.97;2.00;;;12.60;99.90;;;;;;5012674;28;20029;-55
2022/05/26 05:48:49;;;;;;;8.30;1.70;;;12.70;99.90;;;;;;5009614;28;20030;-54
2022/05/26 05:51:17;;;;;;;8.45;1.92;;;12.70;99.90;;;;;;5012235;28;20098;-55
2022/05/26 05:53:44;;;;;;;10.00;1.67;;;12.70;99.90;;;;;;5000308;28;20106;-56
2022/05/26 05:56:10;;;;;;;8.85;1.65;;;12.70;99.90;;;;;;5007671;28;20453;-54
2022/05/26 05:58:35;;;;;;;8.93;1.63;;;12.80;99.90;;;;;;5010221;28;20029;-55
2022/05/26 06:01:01;;;;;;;8.32;2.03;;;12.90;99.90;;;;;;5009047;28;20022;-55
2022/05/26 06:03:35;;;;;;;5.30;1.40;;;13.00;99.90;;;;;;5011196;28;20442;-56
2022/05/26 06:06:02;;;;;;;10.43;2.05;;;13.20;99.90;;;;;;4998603;28;20072;-58
2022/05/26 06:08:28;;;;;;;7.95;1.48;;;13.40;99.90;;;;;;5006515;28;20497;-56
2022/05/26 06:10:55;;;;;;;10.15;1.50;;;13.60;99.90;;;;;;5009407;28;20096;-56
2022/05/26 06:13:20;;;;;;;10.48;3.25;;;13.90;99.90;;;;;;5011524;28;20037;-56
2022/05/26 06:15:46;;;;;;;8.63;1.85;;;13.90;99.90;;;;;;5009465;28;20033;-55
2022/05/26 06:18:13;;;;;;;5.43;1.33;;;14.00;99.90;;;;;;5011692;28;20029;-56
2022/05/26 06:20:40;;;;;;;9.63;1.60;;;14.10;99.90;;;;;;5010084;28;20030;-55
2022/05/26 06:23:06;;;;;;;8.88;1.50;;;14.30;99.90;;;;;;5011957;28;20125;-55
2022/05/26 06:25:32;;;;;;;11.60;1.80;;;14.40;99.90;;;;;;5010577;28;20038;-56
2022/05/26 06:30:42;;;;;;;7.53;1.30;;;14.60;99.90;;;;;;5009613;28;20061;-54
2022/05/26 06:38:41;;;;;;;6.03;1.20;;;14.70;99.40;;;;;;5010278;28;20040;-55
2022/05/26 06:43:54;;;;;;;10.30;1.65;;;14.80;99.70;;;;;;5009035;28;20076;-56
2022/05/26 06:46:20;;;;;;;14.35;3.15;;;14.80;99.60;;;;;;5011097;28;20402;-56
2022/05/26 06:48:46;;;;;;;5.30;1.20;;;14.90;99.60;;;;;;5009284;28;20061;-56
2022/05/26 06:51:13;;;;;;;11.13;1.60;;;15.00;99.40;;;;;;5007796;28;20132;-56
2022/05/26 06:53:38;;;;;;;10.60;1.58;;;15.00;99.20;;;;;;5009471;28;20033;-56
2022/05/26 06:56:05;;;;;;;8.57;1.00;;;15.00;99.40;;;;;;5011141;28;20034;-56
2022/05/26 06:58:31;;;;;;;6.50;1.20;;;15.00;99.00;;;;;;5009720;28;20060;-56
2022/05/26 07:00:58;;;;;;;5.90;1.27;;;15.00;99.40;;;;;;5000631;28;20453;-56
2022/05/26 07:03:24;;;;;;;8.50;1.88;;;15.10;99.10;;;;;;5009819;28;20022;-57
2022/05/26 07:05:52;;;;;;;7.32;1.60;;;15.10;98.60;;;;;;5000928;28;20029;-57
2022/05/26 07:08:19;;;;;;;4.68;0.95;;;15.00;97.40;;;;;;5007990;28;20022;-57
2022/05/26 07:10:46;;;;;;;5.55;1.75;;;14.70;98.40;;;;;;5002268;28;20065;-56
2022/05/26 07:13:15;;;;;;;6.53;1.73;;;14.80;98.10;;;;;;5004229;28;20112;-57
2022/05/26 07:15:41;;;;;;;6.30;1.40;;;14.90;97.50;;;;;;5006285;28;20036;-55
2022/05/26 07:18:07;;;;;;;7.28;1.42;;;15.00;96.70;;;;;;5007754;28;20026;-56
2022/05/26 07:20:36;;;;;;;9.40;1.67;;;15.00;96.80;;;;;;5012116;28;20018;-57
2022/05/26 07:23:03;;;;;;;6.60;1.38;;;15.30;96.80;;;;;;5010123;28;20061;-57
2022/05/26 07:25:29;;;;;;;7.45;1.77;;;15.40;95.90;;;;;;5019158;28;20109;-59
2022/05/26 07:27:55;;;;;;;5.57;1.25;;;15.40;96.10;;;;;;5009692;28;20438;-58
2022/05/26 07:30:20;;;;;;;11.38;1.95;;;15.30;95.80;;;;;;5008328;28;20044;-59
2022/05/26 07:32:46;;;;;;;6.75;1.40;;;15.40;96.50;;;;;;5015141;28;20517;-58
2022/05/26 07:35:12;;;;;;;5.95;1.70;;;15.50;95.80;;;;;;5010464;28;20461;-58
2022/05/26 07:43:08;;;;;;;13.23;1.58;;;15.20;95.80;;;;;;5001644;28;20033;-57
2022/05/26 07:45:36;;;;;;;11.15;1.60;;;15.60;95.90;;;;;;5012321;28;20042;-57
2022/05/26 07:48:01;;;;;;;6.97;1.38;;;15.90;95.40;;;;;;5013493;28;20044;-56
2022/05/26 07:50:27;;;;;;;8.48;1.20;;;16.10;93.90;;;;;;5009429;28;20061;-57
2022/05/26 07:52:53;;;;;;;13.90;2.00;;;16.10;94.20;;;;;;5008243;28;20488;-57
2022/05/26 07:55:19;;;;;;;12.80;2.20;;;16.00;94.60;;;;;;5009138;28;20037;-57
2022/05/26 07:57:46;;;;;;;7.22;1.60;;;16.20;94.40;;;;;;5009326;28;20061;-58
2022/05/26 08:00:13;;;;;;;5.32;2.10;;;16.10;94.00;;;;;;5018711;28;20095;-58
2022/05/26 08:02:40;;;;;;;6.93;1.60;;;16.00;94.10;;;;;;5016347;28;20049;-56
2022/05/26 08:05:07;;;;;;;7.75;1.63;;;16.00;94.00;;;;;;5007521;28;20037;-58
2022/05/26 08:07:33;;;;;;;8.25;1.40;;;16.00;93.90;;;;;;5012830;28;20025;-58
2022/05/26 08:09:59;;;;;;;8.60;1.48;;;16.00;93.50;;;;;;5008545;28;20030;-58
2022/05/26 08:12:25;;;;;;;6.18;1.27;;;16.20;93.60;;;;;;5010196;28;20449;-58
2022/05/26 08:14:51;;;;;;;7.00;2.00;;;16.10;93.00;;;;;;5007890;28;20119;-57
2022/05/26 08:17:20;;;;;;;5.85;1.45;;;16.10;93.00;;;;;;5016018;28;20513;-57
2022/05/26 08:19:46;;;;;;;7.10;1.33;;;16.10;93.00;;;;;;5009233;28;20026;-57
2022/05/26 08:22:14;;;;;;;6.38;1.10;;;16.20;93.80;;;;;;5016567;28;20038;-57
2022/05/26 08:24:40;;;;;;;5.43;1.25;;;16.40;93.20;;;;;;4999335;28;20030;-57
2022/05/26 08:27:06;;;;;;;6.63;1.15;;;16.60;92.30;;;;;;5008844;28;20408;-57
2022/05/26 08:29:32;;;;;;;14.95;1.17;;;16.50;92.70;;;;;;5012408;28;20061;-58
2022/05/26 08:31:57;;;;;;;7.45;1.40;;;16.60;92.30;;;;;;5022193;28;20132;-58
2022/05/26 08:34:23;;;;;;;6.03;1.20;;;16.70;91.80;;;;;;5012143;28;20048;-58
2022/05/26 08:36:49;;;;;;;2.63;0.80;;;16.60;91.60;;;;;;5004787;28;20456;-60
2022/05/26 08:39:15;;;;;;;4.47;1.08;;;16.70;91.00;;;;;;5010139;28;20017;-57
2022/05/26 08:41:46;;;;;;;6.60;1.17;;;16.70;91.00;;;;;;5018892;28;20037;-57
2022/05/26 08:44:35;;;;;;;3.85;1.17;;;16.60;91.40;;;;;;5015775;28;20068;-58
2022/05/26 08:47:16;;;;;;;3.63;0.88;;;16.60;91.80;;;;;;5008325;28;20029;-58
2022/05/26 08:49:57;;;;;;;7.10;1.10;;;16.70;91.40;;;;;;5003208;28;20125;-57
2022/05/26 08:52:39;;;;;;;4.93;1.40;;;16.90;91.70;;;;;;5009394;28;20056;-58
2022/05/26 08:55:10;;;;;;;3.13;1.10;;;16.90;91.10;;;;;;5020390;28;20430;-58
2022/05/26 08:57:47;;;;;;;5.00;1.20;;;16.90;91.20;;;;;;5005623;28;20789;-58
2022/05/26 09:00:16;;;;;;;6.25;1.42;;;17.00;90.80;;;;;;5011482;28;20037;-58
2022/05/26 09:02:42;;;;;;;3.03;1.10;;;17.20;90.40;;;;;;5016145;28;20113;-57
2022/05/26 09:05:17;;;;;;;8.93;1.70;;;17.20;90.00;;;;;;5013939;28;20052;-59
2022/05/26 09:13:48;;;;;;;8.60;1.85;;;17.30;89.50;;;;;;5011258;28;20083;-57
2022/05/26 09:16:14;;;;;;;7.55;1.60;;;17.30;89.60;;;;;;5022872;28;20034;-57
2022/05/26 09:18:40;;;;;;;8.38;1.60;;;17.40;88.10;;;;;;5016682;28;20022;-57
2022/05/26 09:21:29;;;;;;;11.63;1.83;;;17.20;88.90;;;;;;5008230;28;20030;-58
2022/05/26 09:24:19;;;;;;;8.63;2.15;;;17.30;90.10;;;;;;5018915;28;20037;-57
2022/05/26 09:27:02;;;;;;;4.00;1.55;;;17.40;89.20;;;;;;5016315;28;20493;-57
2022/05/26 09:29:31;;;;;;;14.98;2.30;;;17.30;88.90;;;;;;5011492;28;20037;-58
2022/05/26 09:31:59;;;;;;;4.45;1.42;;;17.70;89.10;;;;;;5018002;28;20046;-57
2022/05/26 09:34:28;;;;;;;4.00;1.40;;;17.70;87.40;;;;;;5020946;28;20036;-59
2022/05/26 09:36:59;;;;;;;8.65;1.50;;;17.80;87.60;;;;;;5011950;28;20112;-58
2022/05/26 09:39:42;;;;;;;2.95;1.20;;;17.90;87.50;;;;;;5007656;28;20037;-57
2022/05/26 09:42:17;;;;;;;5.40;1.00;;;17.90;86.40;;;;;;5007829;28;20089;-58
2022/05/26 09:44:54;;;;;;;6.40;1.33;;;17.60;88.30;;;;;;5018607;28;20544;-58
2022/05/26 09:47:35;;;;;;;2.35;0.90;;;18.00;88.60;;;;;;5023379;28;20363;-58
2022/05/26 09:50:05;;;;;;;6.55;1.10;;;18.20;85.90;;;;;;5004099;28;20045;-57
2022/05/26 09:52:46;;;;;;;10.50;1.35;;;18.50;84.50;;;;;;5013484;28;20025;-58
2022/05/26 09:55:20;;;;;;;6.57;0.90;;;18.40;84.60;;;;;;5012161;28;20027;-58
2022/05/26 09:57:47;;;;;;;5.70;1.23;;;18.30;86.10;;;;;;5001941;28;20030;-59
2022/05/26 10:00:36;;;;;;;4.82;0.80;;;18.30;86.60;;;;;;5011368;28;20042;-58
2022/05/26 10:03:18;;;;;;;5.20;1.00;;;18.50;86.50;;;;;;5008549;28;20044;-58
2022/05/26 10:05:59;;;;;;;5.88;1.20;;;18.30;88.40;;;;;;5021214;28;20549;-56
2022/05/26 10:08:35;;;;;;;7.72;1.83;;;18.30;89.30;;;;;;5014991;28;20121;-57
2022/05/26 10:11:40;;;;;;;6.15;1.42;;;18.10;88.90;;;;;;5002166;28;20045;-57
2022/05/26 10:14:31;;;;;;;5.22;1.00;;;18.30;87.70;;;;;;5010635;28;20467;-57
2022/05/26 10:17:29;;;;;;;5.40;1.05;;;18.10;89.30;;;;;;5006721;28;20045;-58
2022/05/26 10:20:05;;;;;;;8.35;1.48;;;17.90;90.10;;;;;;5004033;28;20053;-58
2022/05/26 10:22:49;;;;;;;5.35;0.88;;;18.00;90.30;;;;;;5028209;28;20072;-58
2022/05/26 10:25:32;;;;;;;5.65;1.52;;;17.70;90.50;;;;;;5011133;28;20014;-58
2022/05/26 10:28:16;;;;;;;5.18;0.73;;;17.50;91.00;;;;;;5009426;28;20033;-58
2022/05/26 10:31:03;;;;;;;6.07;1.20;;;17.70;91.50;;;;;;5006044;28;20056;-58
2022/05/26 10:33:54;;;;;;;3.67;1.40;;;17.80;90.50;;;;;;5012061;28;20029;-59
2022/05/26 10:36:56;;;;;;;5.38;1.10;;;17.70;90.90;;;;;;5011612;28;20119;-58
2022/05/26 10:39:49;;;;;;;5.00;1.05;;;18.00;90.90;;;;;;5004588;28;20030;-59
2022/05/26 10:42:34;;;;;;;7.90;1.10;;;18.30;90.00;;;;;;5012400;28;20049;-59
2022/05/26 10:45:16;;;;;;;7.85;0.93;;;18.40;89.90;;;;;;5002367;28;20096;-58
2022/05/26 10:47:58;;;;;;;6.40;1.25;;;18.80;88.90;;;;;;5009648;28;20041;-58
2022/05/26 10:50:52;;;;;;;5.38;1.85;;;18.70;88.40;;;;;;5010328;28;20068;-58
2022/05/26 10:53:25;;;;;;;4.63;0.90;;;18.60;88.90;;;;;;5001644;28;20088;-58
2022/05/26 10:56:04;;;;;;;9.52;1.10;;;18.60;87.10;;;;;;5010698;28;20033;-58
2022/05/26 10:58:34;;;;;;;5.82;1.13;;;18.70;87.00;;;;;;5017353;28;20116;-58
2022/05/26 11:01:08;;;;;;;7.70;1.00;;;18.70;87.50;;;;;;5020945;28;20052;-57
2022/05/26 11:03:45;;;;;;;5.68;1.13;;;18.40;88.60;;;;;;5009961;28;20042;-57
2022/05/26 11:06:37;;;;;;;7.88;1.02;;;18.30;90.40;;;;;;5019974;28;20591;-57
2022/05/26 11:09:21;;;;;;;9.57;0.93;;;18.60;90.10;;;;;;5010184;28;20484;-58
2022/05/26 11:11:53;;;;;;;7.13;1.63;;;19.00;88.80;;;;;;5000843;28;20428;-59
2022/05/26 11:17:53;;;;;;;5.88;0.77;;;18.50;90.70;;;;;;5008508;28;20041;-58
2022/05/26 11:20:26;;;;;;;6.00;1.10;;;18.90;88.80;;;;;;5009297;28;20043;-58
2022/05/26 11:22:53;;;;;;;7.30;0.82;;;18.90;89.50;;;;;;5010591;28;20025;-58
2022/05/26 11:25:46;;;;;;;4.88;1.58;;;18.70;88.70;;;;;;5007239;28;20032;-58
2022/05/26 11:28:39;;;;;;;4.65;1.00;;;18.70;87.50;;;;;;5005634;28;20067;-58
2022/05/26 11:36:56;;;;;;;6.40;0.90;;;18.80;88.00;;;;;;5015867;28;20033;-58
2022/05/26 11:39:29;;;;;;;5.35;1.08;;;19.10;88.40;;;;;;5025576;28;20037;-59
2022/05/26 11:42:03;;;;;;;7.10;1.42;;;19.30;86.20;;;;;;5027751;28;20512;-58
2022/05/26 11:44:30;;;;;;;4.95;1.05;;;18.80;85.40;;;;;;5013594;28;20068;-58
2022/05/26 11:47:30;;;;;;;5.63;1.42;;;19.20;86.50;;;;;;4996242;28;20697;-58
2022/05/26 11:49:55;;;;;;;5.20;2.20;;;19.40;85.80;;;;;;4999727;28;20053;-58
2022/05/26 11:52:26;;;;;;;9.60;1.83;;;19.30;86.70;;;;;;5010274;28;20101;-57
2022/05/26 11:54:55;;;;;;;7.22;1.00;;;19.10;87.00;;;;;;5008354;28;20053;-57
2022/05/26 11:57:35;;;;;;;6.55;0.85;;;19.30;86.60;;;;;;5009721;28;20041;-58
2022/05/26 12:00:15;;;;;;;6.53;1.00;;;19.60;86.00;;;;;;5002913;28;20065;-57
2022/05/26 12:02:52;;;;;;;5.53;1.00;;;19.40;86.10;;;;;;5000964;28;20030;-58
2022/05/26 12:05:29;;;;;;;13.65;1.83;;;19.40;85.40;;;;;;5009736;28;20060;-58
2022/05/26 12:08:03;;;;;;;5.78;0.93;;;20.10;82.40;;;;;;5008101;28;20398;-57
2022/05/26 12:10:37;;;;;;;8.75;1.33;;;20.40;81.30;;;;;;5009717;28;20049;-58
2022/05/26 12:13:32;;;;;;;10.23;1.17;;;20.50;80.40;;;;;;5009167;28;20400;-58
2022/05/26 12:16:19;;;;;;;12.15;1.27;;;20.00;84.00;;;;;;4998802;28;20390;-57
2022/05/26 12:19:04;;;;;;;5.10;1.23;;;19.80;83.00;;;;;;5004958;28;20490;-57
2022/05/26 12:21:29;;;;;;;9.27;1.00;;;19.80;82.60;;;;;;5013381;28;20477;-57
2022/05/26 12:24:35;;;;;;;6.10;1.08;;;20.20;81.50;;;;;;5010177;28;20044;-57
2022/05/26 12:27:01;;;;;;;7.32;1.20;;;20.60;78.00;;;;;;5009013;28;20026;-57
2022/05/26 12:29:47;;;;;;;5.25;0.77;;;21.00;79.40;;;;;;5012041;28;20069;-57
2022/05/26 12:32:30;;;;;;;4.78;1.17;;;21.30;77.00;;;;;;5012944;28;20058;-58
2022/05/26 12:35:17;;;;;;;8.65;1.27;;;21.50;76.20;;;;;;5010054;28;20033;-58
2022/05/26 12:38:03;;;;;;;5.90;1.17;;;22.20;73.60;;;;;;5009694;28;20065;-58
2022/05/26 12:40:54;;;;;;;4.03;0.98;;;22.10;71.80;;;;;;5015236;28;20437;-57
2022/05/26 12:43:27;;;;;;;7.75;1.95;;;21.10;74.70;;;;;;5010421;28;20099;-58
2022/05/26 12:45:55;;;;;;;8.60;1.20;;;20.80;76.80;;;;;;5009991;28;20482;-58
2022/05/26 12:48:45;;;;;;;5.53;1.10;;;20.40;78.00;;;;;;5012108;28;20045;-58
2022/05/26 12:51:13;;;;;;;5.65;1.08;;;19.90;80.40;;;;;;5008298;28;20042;-57
2022/05/26 12:53:49;;;;;;;8.55;0.98;;;19.60;83.40;;;;;;5011628;28;20036;-57
2022/05/26 12:56:24;;;;;;;6.60;1.23;;;19.80;83.50;;;;;;5013014;28;20478;-58
2022/05/26 12:58:58;;;;;;;7.43;1.20;;;20.10;82.50;;;;;;5010111;28;20072;-57
2022/05/26 13:01:26;;;;;;;4.35;1.00;;;20.40;81.30;;;;;;5013377;28;20923;-57
2022/05/26 13:04:04;;;;;;;7.45;0.98;;;20.80;80.80;;;;;;5011134;28;20064;-57
2022/05/26 13:06:36;;;;;;;7.95;1.10;;;20.00;81.90;;;;;;5012330;28;20022;-58
2022/05/26 13:09:35;;;;;;;6.75;1.00;;;19.40;84.80;;;;;;5007837;28;20018;-57
2022/05/26 13:12:04;;;;;;;3.40;0.85;;;20.00;84.40;;;;;;5008025;28;20084;-57
2022/05/26 13:14:47;;;;;;;5.68;1.00;;;19.70;83.40;;;;;;5007101;28;20025;-57
2022/05/26 13:17:13;;;;;;;15.82;1.58;;;19.40;84.70;;;;;;5006749;28;20065;-57
2022/05/26 13:19:43;;;;;;;7.13;0.88;;;19.20;85.60;;;;;;5011506;28;20030;-58
2022/05/26 13:22:19;;;;;;;9.25;1.17;;;19.40;85.50;;;;;;5011506;28;20030;-58
2022/05/26 13:24:56;;;;;;;6.57;1.20;;;19.00;86.40;;;;;;5011097;28;20036;-58
2022/05/26 13:27:25;;;;;;;11.40;2.03;;;18.70;89.40;;;;;;5012580;28;20029;-57
2022/05/26 13:29:52;;;;;;;6.65;1.00;;;18.80;88.90;;;;;;5011069;28;20103;-58
2022/05/26 13:35:19;;;;;;;6.47;1.63;;;19.40;88.00;;;;;;5005324;28;20040;-56
2022/05/26 13:37:46;;;;;;;7.75;1.50;;;19.30;86.70;;;;;;5007859;28;20026;-57
2022/05/26 13:40:26;;;;;;;12.25;1.90;;;19.30;88.60;;;;;;5012669;28;20072;-57
2022/05/26 13:42:53;;;;;;;9.60;2.13;;;18.90;89.20;;;;;;5007586;28;20033;-58
2022/05/26 13:45:34;;;;;;;10.40;1.30;;;18.40;90.60;;;;;;5012408;28;20077;-58
2022/05/26 13:48:29;;;;;;;5.78;1.05;;;18.80;90.30;;;;;;5004721;28;20026;-58
2022/05/26 13:51:03;;;;;;;11.07;2.28;;;18.70;90.30;;;;;;5008279;28;20451;-58
2022/05/26 13:53:29;;;;;;;10.90;1.23;;;18.80;90.20;;;;;;4996122;28;20084;-58
2022/05/26 13:55:57;;;;;;;10.20;1.67;;;19.50;88.10;;;;;;5004781;28;20908;-58
2022/05/26 13:58:24;;;;;;;11.70;1.52;;;19.30;88.10;;;;;;5007455;28;20032;-59